Delphis Riga — VRQN8 — position and weather

sailwx.info

Track history (hours):
 
Tides and Currents Weather Stations Pressure Air Temp Water Temp Dewpoint Dewpoint Depression Visibility Wind Speed Wind Dir Waves Ship Positions

Delphis Riga

Last reported at 2017-Oct-17 13:44 UTC. Time now 2017-Oct-18 03:39 UTC.
Position N 37°19' E 023°41'.

Length 178 m; draft 7.8 m.

Type: Ship (hazmat cat D). MMSI: 477234800.

Date/timePositionNaut miles runAvg speedWind from/ knotsBaromVisibWave heightAir tempDewpointWater temp
2017-Oct-17 13:44N 37°19' E 023°41'413.0
2017-Oct-17 13:28N 37°23' E 023°41'613.1
2017-Oct-17 12:59N 37°29' E 023°42'713.3
2017-Oct-17 12:27N 37°36' E 023°42'613.0
2017-Oct-17 12:00N 37°42' E 023°41'713.3
2017-Oct-17 11:30N 37°48' E 023°37'713.4
2017-Oct-17 11:00N 37°55' E 023°37'3 5.9
2017-Oct-17 10:30N 37°57' E 023°35'0 0.2
2017-Oct-17 10:00N 37°57' E 023°35'0 0.0
2017-Oct-17 09:30N 37°57' E 023°35'0 0.0
2017-Oct-17 09:00N 37°57' E 023°35'0 0.0
2017-Oct-17 08:30N 37°57' E 023°35'0 0.0
2017-Oct-17 08:00N 37°57' E 023°35'0 0.0
2017-Oct-17 07:30N 37°57' E 023°35'0 0.0
2017-Oct-17 07:00N 37°57' E 023°35'0 0.0
2017-Oct-17 06:30N 37°57' E 023°35'0 0.0
2017-Oct-17 06:00N 37°57' E 023°35'0 0.0
2017-Oct-17 05:30N 37°57' E 023°35'0 0.0
2017-Oct-17 05:00N 37°57' E 023°35'0 0.0
2017-Oct-17 04:30N 37°57' E 023°35'0 0.0
2017-Oct-17 04:00N 37°57' E 023°35'0 0.0
2017-Oct-17 03:30N 37°57' E 023°35'0 0.0
2017-Oct-17 03:00N 37°57' E 023°35'0 0.0
2017-Oct-17 02:30N 37°57' E 023°35'0 0.0
2017-Oct-17 02:00N 37°57' E 023°35'0 0.0
2017-Oct-17 01:30N 37°57' E 023°35'0 0.0
2017-Oct-17 01:00N 37°57' E 023°35'0 0.0
2017-Oct-17 00:28N 37°57' E 023°35'0 0.0
2017-Oct-16 23:58N 37°57' E 023°35'0 0.0
2017-Oct-16 23:28N 37°57' E 023°35'0 0.0
2017-Oct-16 22:58N 37°57' E 023°35'0 0.0
2017-Oct-16 22:28N 37°57' E 023°35'0 0.0
2017-Oct-16 21:58N 37°57' E 023°35'0 0.0
2017-Oct-16 21:28N 37°57' E 023°35'0 0.0
2017-Oct-16 20:58N 37°57' E 023°35'0 0.0
2017-Oct-16 20:28N 37°57' E 023°35'0 0.0
2017-Oct-16 19:58N 37°57' E 023°35'0 0.0
2017-Oct-16 19:28N 37°57' E 023°35'0 0.0
2017-Oct-16 18:58N 37°57' E 023°35'0 0.0
2017-Oct-16 18:28N 37°57' E 023°35'0 0.0
2017-Oct-16 17:58N 37°57' E 023°35'0 0.0
2017-Oct-16 17:28N 37°57' E 023°35'0 0.0
2017-Oct-16 16:58N 37°57' E 023°35'0 0.0
2017-Oct-16 16:28N 37°57' E 023°35'0 0.1
2017-Oct-16 15:58N 37°57' E 023°35'0 0.1
2017-Oct-16 15:28N 37°57' E 023°35'0 0.0
2017-Oct-16 14:58N 37°57' E 023°35'0 0.0
2017-Oct-16 14:28N 37°57' E 023°35'0 0.0
2017-Oct-16 13:28N 37°57' E 023°35'0 0.0
2017-Oct-16 12:58N 37°57' E 023°35'0 0.0
2017-Oct-16 12:28N 37°57' E 023°35'0 0.0
2017-Oct-16 11:58N 37°57' E 023°35'0 0.0
2017-Oct-16 11:28N 37°57' E 023°35'0 0.0
2017-Oct-16 10:58N 37°57' E 023°35'0 0.0
2017-Oct-16 10:28N 37°57' E 023°35'0 0.0
2017-Oct-16 09:58N 37°57' E 023°35'0 0.0
2017-Oct-16 09:28N 37°57' E 023°35'0 0.0
2017-Oct-16 08:58N 37°57' E 023°35'0 0.0
2017-Oct-16 08:28N 37°57' E 023°35'0 0.3
2017-Oct-16 08:00N 37°57' E 023°35'3 5.3
2017-Oct-16 07:31N 37°55' E 023°35'3 6.6
2017-Oct-16 07:00N 37°52' E 023°38'4 7.7
2017-Oct-16 06:30N 37°49' E 023°40'4 8.0
2017-Oct-16 06:00N 37°45' E 023°42'4 8.4
2017-Oct-16 05:30N 37°41' E 023°45'4 7.4
2017-Oct-16 05:00N 37°39' E 023°48'5 9.7
2017-Oct-16 04:30N 37°36' E 023°53'711.4
2017-Oct-16 03:56N 37°34' E 024°01'1611.5
2017-Oct-16 02:33N 37°43' E 024°18'112.1
2017-Oct-16 02:30N 37°43' E 024°19'101 2.0
2017-Oct-13 23:20N 39°19' E 024°59'515.2
2017-Oct-13 22:59N 39°21' E 024°53'714.7
2017-Oct-13 22:29N 39°25' E 024°44'714.9
2017-Oct-13 22:00N 39°28' E 024°36'815.5
2017-Oct-13 21:30N 39°32' E 024°27'815.8
2017-Oct-13 20:59N 39°35' E 024°18'715.6
2017-Oct-13 20:30N 39°38' E 024°09'815.5
2017-Oct-13 20:00N 39°40' E 023°59'1515.2
2017-Oct-13 19:03N 39°45' E 023°41'214.9
2017-Oct-13 18:55N 39°45' E 023°39'  
2017-Oct-10 23:05N 39°46' E 024°08'214.1
2017-Oct-10 22:58N 39°46' E 024°10'2813.5
2017-Oct-10 20:52N 39°43' E 024°47'513.3
2017-Oct-10 20:28N 39°43' E 024°54'613.3
2017-Oct-10 20:00N 39°42' E 025°02'192 7.7
2017-Oct-09 19:09N 40°25' E 029°06'1 5.5
2017-Oct-09 19:00N 40°26' E 029°05'18 5.9
2017-Oct-09 16:00N 40°39' E 028°50'714.0
2017-Oct-09 15:30N 40°43' E 028°58'714.2
2017-Oct-09 15:00N 40°44' E 029°07'714.5
2017-Oct-09 14:31N 40°44' E 029°16'611.1
2017-Oct-09 14:00N 40°44' E 029°24'611.5
2017-Oct-09 13:30N 40°45' E 029°31'1 0.1
2017-Oct-09 00:41N 40°46' E 029°32'0 2.6
2017-Oct-09 00:30N 40°45' E 029°32'4 7.2
2017-Oct-08 23:56N 40°44' E 029°27'4 8.7
2017-Oct-08 23:30N 40°44' E 029°22'3 6.0
2017-Oct-08 23:00N 40°44' E 029°18'4 8.6
2017-Oct-08 22:30N 40°46' E 029°13'4 8.8
2017-Oct-08 22:00N 40°48' E 029°07'611.4
2017-Oct-08 21:30N 40°49' E 029°00'5 9.0
2017-Oct-08 21:00N 40°53' E 028°57'5 9.9
2017-Oct-08 20:30N 40°58' E 028°58'3 5.1
2017-Oct-08 19:54N 41°00' E 029°00'0 0.0
2017-Oct-08 06:25N 41°00' E 029°00'1 2.7
2017-Oct-08 05:53N 40°59' E 028°60'4 9.0
2017-Oct-08 05:29N 40°56' E 028°58'511.1
2017-Oct-08 05:00N 40°52' E 028°53'4 7.3
2017-Oct-08 04:30N 40°51' E 028°49'  
Track history (hours):
 
Tides and Currents Weather Stations Pressure Air Temp Water Temp Dewpoint Dewpoint Depression Visibility Wind Speed Wind Dir Waves Ship Positions

Delphis Riga

Last reported at 2017-Oct-17 13:44 UTC. Time now 2017-Oct-18 03:39 UTC.
Position N 37°19' E 023°41'.

Length 178 m; draft 7.8 m.

Type: Ship (hazmat cat D). MMSI: 477234800.

Date/timePositionNaut miles runAvg speedWind from/ knotsBaromVisibWave heightAir tempDewpointWater temp
2017-Oct-17 13:44N 37°19' E 023°41'413.0
2017-Oct-17 13:28N 37°23' E 023°41'613.1
2017-Oct-17 12:59N 37°29' E 023°42'713.3
2017-Oct-17 12:27N 37°36' E 023°42'613.0
2017-Oct-17 12:00N 37°42' E 023°41'713.3
2017-Oct-17 11:30N 37°48' E 023°37'713.4
2017-Oct-17 11:00N 37°55' E 023°37'3 5.9
2017-Oct-17 10:30N 37°57' E 023°35'0 0.2
2017-Oct-17 10:00N 37°57' E 023°35'0 0.0
2017-Oct-17 09:30N 37°57' E 023°35'0 0.0
2017-Oct-17 09:00N 37°57' E 023°35'0 0.0
2017-Oct-17 08:30N 37°57' E 023°35'0 0.0
2017-Oct-17 08:00N 37°57' E 023°35'0 0.0
2017-Oct-17 07:30N 37°57' E 023°35'0 0.0
2017-Oct-17 07:00N 37°57' E 023°35'0 0.0
2017-Oct-17 06:30N 37°57' E 023°35'0 0.0
2017-Oct-17 06:00N 37°57' E 023°35'0 0.0
2017-Oct-17 05:30N 37°57' E 023°35'0 0.0
2017-Oct-17 05:00N 37°57' E 023°35'0 0.0
2017-Oct-17 04:30N 37°57' E 023°35'0 0.0
2017-Oct-17 04:00N 37°57' E 023°35'0 0.0
2017-Oct-17 03:30N 37°57' E 023°35'0 0.0
2017-Oct-17 03:00N 37°57' E 023°35'0 0.0
2017-Oct-17 02:30N 37°57' E 023°35'0 0.0
2017-Oct-17 02:00N 37°57' E 023°35'0 0.0
2017-Oct-17 01:30N 37°57' E 023°35'0 0.0
2017-Oct-17 01:00N 37°57' E 023°35'0 0.0
2017-Oct-17 00:28N 37°57' E 023°35'0 0.0
2017-Oct-16 23:58N 37°57' E 023°35'0 0.0
2017-Oct-16 23:28N 37°57' E 023°35'0 0.0
2017-Oct-16 22:58N 37°57' E 023°35'0 0.0
2017-Oct-16 22:28N 37°57' E 023°35'0 0.0
2017-Oct-16 21:58N 37°57' E 023°35'0 0.0
2017-Oct-16 21:28N 37°57' E 023°35'0 0.0
2017-Oct-16 20:58N 37°57' E 023°35'0 0.0
2017-Oct-16 20:28N 37°57' E 023°35'0 0.0
2017-Oct-16 19:58N 37°57' E 023°35'0 0.0
2017-Oct-16 19:28N 37°57' E 023°35'0 0.0
2017-Oct-16 18:58N 37°57' E 023°35'0 0.0
2017-Oct-16 18:28N 37°57' E 023°35'0 0.0
2017-Oct-16 17:58N 37°57' E 023°35'0 0.0
2017-Oct-16 17:28N 37°57' E 023°35'0 0.0
2017-Oct-16 16:58N 37°57' E 023°35'0 0.0
2017-Oct-16 16:28N 37°57' E 023°35'0 0.1
2017-Oct-16 15:58N 37°57' E 023°35'0 0.1
2017-Oct-16 15:28N 37°57' E 023°35'0 0.0
2017-Oct-16 14:58N 37°57' E 023°35'0 0.0
2017-Oct-16 14:28N 37°57' E 023°35'0 0.0
2017-Oct-16 13:28N 37°57' E 023°35'0 0.0
2017-Oct-16 12:58N 37°57' E 023°35'0 0.0
2017-Oct-16 12:28N 37°57' E 023°35'0 0.0
2017-Oct-16 11:58N 37°57' E 023°35'0 0.0
2017-Oct-16 11:28N 37°57' E 023°35'0 0.0
2017-Oct-16 10:58N 37°57' E 023°35'0 0.0
2017-Oct-16 10:28N 37°57' E 023°35'0 0.0
2017-Oct-16 09:58N 37°57' E 023°35'0 0.0
2017-Oct-16 09:28N 37°57' E 023°35'0 0.0
2017-Oct-16 08:58N 37°57' E 023°35'0 0.0
2017-Oct-16 08:28N 37°57' E 023°35'0 0.3
2017-Oct-16 08:00N 37°57' E 023°35'3 5.3
2017-Oct-16 07:31N 37°55' E 023°35'3 6.6
2017-Oct-16 07:00N 37°52' E 023°38'4 7.7
2017-Oct-16 06:30N 37°49' E 023°40'4 8.0
2017-Oct-16 06:00N 37°45' E 023°42'4 8.4
2017-Oct-16 05:30N 37°41' E 023°45'4 7.4
2017-Oct-16 05:00N 37°39' E 023°48'5 9.7
2017-Oct-16 04:30N 37°36' E 023°53'711.4
2017-Oct-16 03:56N 37°34' E 024°01'1611.5
2017-Oct-16 02:33N 37°43' E 024°18'112.1
2017-Oct-16 02:30N 37°43' E 024°19'101 2.0
2017-Oct-13 23:20N 39°19' E 024°59'515.2
2017-Oct-13 22:59N 39°21' E 024°53'714.7
2017-Oct-13 22:29N 39°25' E 024°44'714.9
2017-Oct-13 22:00N 39°28' E 024°36'815.5
2017-Oct-13 21:30N 39°32' E 024°27'815.8
2017-Oct-13 20:59N 39°35' E 024°18'715.6
2017-Oct-13 20:30N 39°38' E 024°09'815.5
2017-Oct-13 20:00N 39°40' E 023°59'1515.2
2017-Oct-13 19:03N 39°45' E 023°41'214.9
2017-Oct-13 18:55N 39°45' E 023°39'  
2017-Oct-10 23:05N 39°46' E 024°08'214.1
2017-Oct-10 22:58N 39°46' E 024°10'2813.5
2017-Oct-10 20:52N 39°43' E 024°47'513.3
2017-Oct-10 20:28N 39°43' E 024°54'613.3
2017-Oct-10 20:00N 39°42' E 025°02'192 7.7
2017-Oct-09 19:09N 40°25' E 029°06'1 5.5
2017-Oct-09 19:00N 40°26' E 029°05'18 5.9
2017-Oct-09 16:00N 40°39' E 028°50'714.0
2017-Oct-09 15:30N 40°43' E 028°58'714.2
2017-Oct-09 15:00N 40°44' E 029°07'714.5
2017-Oct-09 14:31N 40°44' E 029°16'611.1
2017-Oct-09 14:00N 40°44' E 029°24'611.5
2017-Oct-09 13:30N 40°45' E 029°31'1 0.1
2017-Oct-09 00:41N 40°46' E 029°32'0 2.6
2017-Oct-09 00:30N 40°45' E 029°32'4 7.2
2017-Oct-08 23:56N 40°44' E 029°27'4 8.7
2017-Oct-08 23:30N 40°44' E 029°22'3 6.0
2017-Oct-08 23:00N 40°44' E 029°18'4 8.6
2017-Oct-08 22:30N 40°46' E 029°13'4 8.8
2017-Oct-08 22:00N 40°48' E 029°07'611.4
2017-Oct-08 21:30N 40°49' E 029°00'5 9.0
2017-Oct-08 21:00N 40°53' E 028°57'5 9.9
2017-Oct-08 20:30N 40°58' E 028°58'3 5.1
2017-Oct-08 19:54N 41°00' E 029°00'0 0.0
2017-Oct-08 06:25N 41°00' E 029°00'1 2.7
2017-Oct-08 05:53N 40°59' E 028°60'4 9.0
2017-Oct-08 05:29N 40°56' E 028°58'511.1
2017-Oct-08 05:00N 40°52' E 028°53'4 7.3
2017-Oct-08 04:30N 40°51' E 028°49'  

Dump ship's entire track history